Sulphur, LA (70663)

9:57 PM CDT on May 26, 2017 (GMT -0500)
WCCH | | Change Station

Elev 13 ft 30.23 °N, 93.37 °W | Updated 25 days ago

Overcast
Overcast
78.7 °F
Feels Like 78.7 °F
N
4.0
Wind Variable Wind from WNW
Gusts 8.0 mph

Today
High -- | Low -- °F
--% Chance of Precip.
Yesterday
High -- | Low -- °F
Precip. -- in
Pressure 29.94 in
Visibility 10.0 miles
Clouds Scattered Clouds 1100 ft
Mostly Cloudy 1600 ft
Overcast 2100 ft
Dew Point 45.5 °F
Humidity 31%
Rainfall in
Snow Depth Not available.
6:14 AM 8:07 PM
Waxing Crescent, 3% visible
METAR KUXL 270235Z AUTO 15008KT 10SM SCT011 BKN016 OVC021 26/24 A2994 RMK AO2 T02590243
Pressure 29.94 in
Visibility 10.0 miles
Clouds Scattered Clouds 1100 ft
Mostly Cloudy 1600 ft
Overcast 2100 ft
Dew Point 45.5 °F
Humidity 31%
Rainfall in
Snow Depth Not available.
6:14 AM 8:07 PM
Waxing Crescent, 3% visible
METAR KUXL 270235Z AUTO 15008KT 10SM SCT011 BKN016 OVC021 26/24 A2994 RMK AO2 T02590243

Get Severe Weather Alerts

Thanks for signing up!

Be on the lookout for a verification email in your inbox.

You'll start receiving the daily forecast at 6 AM.

×

10-Day Weather Forecast

Almanac

Astronomy

May. 26, 2017 Rise Set
Actual Time
Civil Twilight
Nautical Twilight
Astronomical Twilight
Moon
Length of Visible Light
Length of Day
Tomorrow will be .
, % of the Moon is Illuminated

Today's Extremes

State Highs State Lows

Community

WunderPhotos

Category 6

Welcome to Category 6. This is the collective home for Weather Underground's featured writeups by Dr. Jeff Masters (right), Bob Henson (left), Chris Burt, and other regular contributors.

Nearby

Air Quality

  Air Quality AQ Index Pollutant
Not available.

Snow Depth

Station Depth Elevation

Earthquake Activity

City Distance Mag. Time & Date
Minimum magnitude displayed is 2.5.

Coastal Water Temperatures

Place Temperature

Stations

Nearby Weather Stations

Station Location Temp. Windchill Dew Point Humidity Wind Precip. Elev Updated Type
                   

Watches & Warnings

There are currently no watches in effect.